sensor_id;sensor_type;location;lat;lon;timestamp;P1;durP1;ratioP1;P2;durP2;ratioP2
26951;SDS011;14507;52.418;13.398;2023-04-16T00:00:32;25.75;;;17.95;;
26951;SDS011;14507;52.418;13.398;2023-04-16T00:02:58;24.95;;;16.85;;
26951;SDS011;14507;52.418;13.398;2023-04-16T00:05:24;24.05;;;16.50;;
26951;SDS011;14507;52.418;13.398;2023-04-16T00:07:49;24.13;;;16.08;;
26951;SDS011;14507;52.418;13.398;2023-04-16T00:10:15;24.70;;;17.80;;
26951;SDS011;14507;52.418;13.398;2023-04-16T00:12:41;27.30;;;17.23;;
26951;SDS011;14507;52.418;13.398;2023-04-16T00:15:07;25.90;;;17.70;;
26951;SDS011;14507;52.418;13.398;2023-04-16T00:17:33;25.15;;;16.73;;
26951;SDS011;14507;52.418;13.398;2023-04-16T00:19:59;27.27;;;17.17;;
26951;SDS011;14507;52.418;13.398;2023-04-16T00:22:24;26.45;;;16.80;;
26951;SDS011;14507;52.418;13.398;2023-04-16T00:24:50;24.73;;;15.75;;
26951;SDS011;14507;52.418;13.398;2023-04-16T00:27:17;24.38;;;16.65;;
26951;SDS011;14507;52.418;13.398;2023-04-16T00:29:43;26.27;;;17.10;;
26951;SDS011;14507;52.418;13.398;2023-04-16T00:32:08;27.83;;;17.75;;
26951;SDS011;14507;52.418;13.398;2023-04-16T00:34:34;23.55;;;16.92;;
26951;SDS011;14507;52.418;13.398;2023-04-16T00:37:00;23.35;;;16.27;;
26951;SDS011;14507;52.418;13.398;2023-04-16T00:39:25;26.80;;;16.92;;
26951;SDS011;14507;52.418;13.398;2023-04-16T00:41:51;25.73;;;17.30;;
26951;SDS011;14507;52.418;13.398;2023-04-16T00:44:16;26.42;;;17.05;;
26951;SDS011;14507;52.418;13.398;2023-04-16T00:46:42;26.67;;;17.02;;
26951;SDS011;14507;52.418;13.398;2023-04-16T00:49:09;27.85;;;18.67;;
26951;SDS011;14507;52.418;13.398;2023-04-16T00:51:35;29.48;;;18.48;;
26951;SDS011;14507;52.418;13.398;2023-04-16T00:54:01;25.98;;;17.48;;
26951;SDS011;14507;52.418;13.398;2023-04-16T00:56:27;26.67;;;18.13;;
26951;SDS011;14507;52.418;13.398;2023-04-16T00:58:53;28.40;;;19.15;;
26951;SDS011;14507;52.418;13.398;2023-04-16T01:01:20;28.27;;;18.20;;
26951;SDS011;14507;52.418;13.398;2023-04-16T01:03:46;29.92;;;18.98;;
26951;SDS011;14507;52.418;13.398;2023-04-16T01:06:13;30.05;;;18.77;;
26951;SDS011;14507;52.418;13.398;2023-04-16T01:08:40;29.40;;;19.30;;
26951;SDS011;14507;52.418;13.398;2023-04-16T01:11:06;26.95;;;18.25;;
26951;SDS011;14507;52.418;13.398;2023-04-16T01:13:32;25.83;;;17.30;;
26951;SDS011;14507;52.418;13.398;2023-04-16T01:15:58;27.83;;;18.42;;
26951;SDS011;14507;52.418;13.398;2023-04-16T01:18:25;30.95;;;18.92;;
26951;SDS011;14507;52.418;13.398;2023-04-16T01:20:51;28.95;;;18.25;;
26951;SDS011;14507;52.418;13.398;2023-04-16T01:23:17;27.23;;;18.85;;
26951;SDS011;14507;52.418;13.398;2023-04-16T01:25:43;28.00;;;18.67;;
26951;SDS011;14507;52.418;13.398;2023-04-16T01:28:10;28.95;;;19.23;;
26951;SDS011;14507;52.418;13.398;2023-04-16T01:30:35;29.17;;;19.02;;
26951;SDS011;14507;52.418;13.398;2023-04-16T01:33:01;30.40;;;18.60;;
26951;SDS011;14507;52.418;13.398;2023-04-16T01:35:27;27.05;;;18.55;;
26951;SDS011;14507;52.418;13.398;2023-04-16T01:37:53;25.40;;;17.52;;
26951;SDS011;14507;52.418;13.398;2023-04-16T01:40:18;27.90;;;18.75;;
26951;SDS011;14507;52.418;13.398;2023-04-16T01:42:44;31.60;;;19.45;;
26951;SDS011;14507;52.418;13.398;2023-04-16T01:45:10;29.23;;;19.73;;
26951;SDS011;14507;52.418;13.398;2023-04-16T01:47:36;30.20;;;18.70;;
26951;SDS011;14507;52.418;13.398;2023-04-16T01:50:02;29.50;;;19.20;;
26951;SDS011;14507;52.418;13.398;2023-04-16T01:52:28;29.40;;;19.02;;
26951;SDS011;14507;52.418;13.398;2023-04-16T01:54:54;32.78;;;20.25;;
26951;SDS011;14507;52.418;13.398;2023-04-16T01:57:19;29.70;;;19.95;;
26951;SDS011;14507;52.418;13.398;2023-04-16T01:59:45;31.00;;;19.75;;
26951;SDS011;14507;52.418;13.398;2023-04-16T02:02:11;32.17;;;21.55;;
26951;SDS011;14507;52.418;13.398;2023-04-16T02:04:40;30.08;;;20.00;;
26951;SDS011;14507;52.418;13.398;2023-04-16T02:07:09;31.77;;;20.35;;
26951;SDS011;14507;52.418;13.398;2023-04-16T02:09:36;34.50;;;21.77;;
26951;SDS011;14507;52.418;13.398;2023-04-16T02:12:02;32.55;;;20.52;;
26951;SDS011;14507;52.418;13.398;2023-04-16T02:14:28;31.25;;;20.10;;
26951;SDS011;14507;52.418;13.398;2023-04-16T02:16:55;34.95;;;21.85;;
26951;SDS011;14507;52.418;13.398;2023-04-16T02:19:20;32.40;;;21.52;;
26951;SDS011;14507;52.418;13.398;2023-04-16T02:21:47;32.33;;;21.73;;
26951;SDS011;14507;52.418;13.398;2023-04-16T02:24:13;37.50;;;22.38;;
26951;SDS011;14507;52.418;13.398;2023-04-16T02:26:39;33.42;;;22.77;;
26951;SDS011;14507;52.418;13.398;2023-04-16T02:29:05;36.65;;;22.92;;
26951;SDS011;14507;52.418;13.398;2023-04-16T02:31:31;35.47;;;22.58;;
26951;SDS011;14507;52.418;13.398;2023-04-16T02:33:56;35.10;;;23.35;;
26951;SDS011;14507;52.418;13.398;2023-04-16T02:36:22;34.65;;;22.58;;
26951;SDS011;14507;52.418;13.398;2023-04-16T02:38:48;34.72;;;21.95;;
26951;SDS011;14507;52.418;13.398;2023-04-16T02:41:13;34.78;;;22.48;;
26951;SDS011;14507;52.418;13.398;2023-04-16T02:43:39;33.22;;;21.98;;
26951;SDS011;14507;52.418;13.398;2023-04-16T02:46:05;36.47;;;23.65;;
26951;SDS011;14507;52.418;13.398;2023-04-16T02:48:31;29.75;;;20.92;;
26951;SDS011;14507;52.418;13.398;2023-04-16T02:50:56;34.22;;;22.65;;
26951;SDS011;14507;52.418;13.398;2023-04-16T02:53:22;33.38;;;22.08;;
26951;SDS011;14507;52.418;13.398;2023-04-16T02:55:51;32.53;;;21.52;;
26951;SDS011;14507;52.418;13.398;2023-04-16T02:58:18;35.03;;;22.58;;
26951;SDS011;14507;52.418;13.398;2023-04-16T03:00:44;35.47;;;23.63;;
26951;SDS011;14507;52.418;13.398;2023-04-16T03:03:10;32.78;;;22.50;;
26951;SDS011;14507;52.418;13.398;2023-04-16T03:05:36;34.28;;;23.50;;
26951;SDS011;14507;52.418;13.398;2023-04-16T03:08:04;32.17;;;21.95;;
26951;SDS011;14507;52.418;13.398;2023-04-16T03:10:30;35.17;;;23.42;;
26951;SDS011;14507;52.418;13.398;2023-04-16T03:12:56;33.00;;;21.83;;
26951;SDS011;14507;52.418;13.398;2023-04-16T03:15:22;31.20;;;22.55;;
26951;SDS011;14507;52.418;13.398;2023-04-16T03:17:48;33.97;;;22.83;;
26951;SDS011;14507;52.418;13.398;2023-04-16T03:20:13;38.97;;;24.40;;
26951;SDS011;14507;52.418;13.398;2023-04-16T03:22:41;36.60;;;23.88;;
26951;SDS011;14507;52.418;13.398;2023-04-16T03:25:07;36.45;;;23.83;;
26951;SDS011;14507;52.418;13.398;2023-04-16T03:27:33;35.83;;;23.58;;
26951;SDS011;14507;52.418;13.398;2023-04-16T03:29:59;38.70;;;24.42;;
26951;SDS011;14507;52.418;13.398;2023-04-16T03:32:25;36.13;;;23.73;;
26951;SDS011;14507;52.418;13.398;2023-04-16T03:34:51;37.97;;;24.67;;
26951;SDS011;14507;52.418;13.398;2023-04-16T03:37:16;38.42;;;25.38;;
26951;SDS011;14507;52.418;13.398;2023-04-16T03:39:42;37.55;;;24.65;;
26951;SDS011;14507;52.418;13.398;2023-04-16T03:42:08;39.65;;;25.13;;
26951;SDS011;14507;52.418;13.398;2023-04-16T03:44:34;42.08;;;27.70;;
26951;SDS011;14507;52.418;13.398;2023-04-16T03:46:59;40.53;;;26.52;;
26951;SDS011;14507;52.418;13.398;2023-04-16T03:49:25;41.95;;;25.52;;
26951;SDS011;14507;52.418;13.398;2023-04-16T03:51:51;44.10;;;27.67;;
26951;SDS011;14507;52.418;13.398;2023-04-16T03:54:16;46.00;;;27.42;;
26951;SDS011;14507;52.418;13.398;2023-04-16T03:56:42;47.92;;;28.85;;
26951;SDS011;14507;52.418;13.398;2023-04-16T03:59:08;47.58;;;29.38;;
26951;SDS011;14507;52.418;13.398;2023-04-16T04:01:34;45.75;;;28.95;;
26951;SDS011;14507;52.418;13.398;2023-04-16T04:03:59;45.90;;;29.27;;
26951;SDS011;14507;52.418;13.398;2023-04-16T04:06:25;49.42;;;29.17;;
26951;SDS011;14507;52.418;13.398;2023-04-16T04:08:51;47.17;;;29.67;;
26951;SDS011;14507;52.418;13.398;2023-04-16T04:11:17;46.78;;;28.70;;
26951;SDS011;14507;52.418;13.398;2023-04-16T04:13:43;51.10;;;29.15;;
26951;SDS011;14507;52.418;13.398;2023-04-16T04:16:09;50.03;;;29.02;;
26951;SDS011;14507;52.418;13.398;2023-04-16T04:18:35;49.63;;;28.95;;
26951;SDS011;14507;52.418;13.398;2023-04-16T04:21:07;49.05;;;28.83;;
26951;SDS011;14507;52.418;13.398;2023-04-16T04:23:34;45.97;;;29.10;;
26951;SDS011;14507;52.418;13.398;2023-04-16T04:26:00;53.35;;;30.70;;
26951;SDS011;14507;52.418;13.398;2023-04-16T04:28:32;50.60;;;30.25;;
26951;SDS011;14507;52.418;13.398;2023-04-16T04:30:59;52.15;;;29.55;;
26951;SDS011;14507;52.418;13.398;2023-04-16T04:33:25;45.40;;;28.88;;
26951;SDS011;14507;52.418;13.398;2023-04-16T04:35:51;46.85;;;28.42;;
26951;SDS011;14507;52.418;13.398;2023-04-16T04:38:18;45.88;;;29.27;;
26951;SDS011;14507;52.418;13.398;2023-04-16T04:40:45;46.80;;;28.48;;
26951;SDS011;14507;52.418;13.398;2023-04-16T04:43:12;47.47;;;28.05;;
26951;SDS011;14507;52.418;13.398;2023-04-16T04:45:37;47.67;;;27.92;;
26951;SDS011;14507;52.418;13.398;2023-04-16T04:48:03;44.85;;;27.95;;
26951;SDS011;14507;52.418;13.398;2023-04-16T04:50:28;48.13;;;27.92;;
26951;SDS011;14507;52.418;13.398;2023-04-16T04:52:54;48.00;;;28.33;;
26951;SDS011;14507;52.418;13.398;2023-04-16T04:55:20;44.00;;;27.58;;
26951;SDS011;14507;52.418;13.398;2023-04-16T04:57:45;47.90;;;28.80;;
26951;SDS011;14507;52.418;13.398;2023-04-16T05:00:11;50.53;;;28.52;;
26951;SDS011;14507;52.418;13.398;2023-04-16T05:02:37;48.78;;;27.08;;
26951;SDS011;14507;52.418;13.398;2023-04-16T05:05:03;48.28;;;28.02;;
26951;SDS011;14507;52.418;13.398;2023-04-16T05:07:29;46.33;;;27.73;;
26951;SDS011;14507;52.418;13.398;2023-04-16T05:09:55;48.63;;;27.63;;
26951;SDS011;14507;52.418;13.398;2023-04-16T05:12:21;46.83;;;27.13;;
26951;SDS011;14507;52.418;13.398;2023-04-16T05:14:46;49.30;;;28.30;;
26951;SDS011;14507;52.418;13.398;2023-04-16T05:17:12;45.78;;;27.73;;
26951;SDS011;14507;52.418;13.398;2023-04-16T05:19:37;44.85;;;26.38;;
26951;SDS011;14507;52.418;13.398;2023-04-16T05:22:03;46.17;;;27.55;;
26951;SDS011;14507;52.418;13.398;2023-04-16T05:24:29;51.22;;;28.13;;
26951;SDS011;14507;52.418;13.398;2023-04-16T05:26:55;44.63;;;26.38;;
26951;SDS011;14507;52.418;13.398;2023-04-16T05:29:21;42.97;;;26.20;;
26951;SDS011;14507;52.418;13.398;2023-04-16T05:31:47;43.17;;;25.73;;
26951;SDS011;14507;52.418;13.398;2023-04-16T05:34:13;47.58;;;27.52;;
26951;SDS011;14507;52.418;13.398;2023-04-16T05:36:38;47.80;;;27.58;;
26951;SDS011;14507;52.418;13.398;2023-04-16T05:39:04;46.13;;;26.42;;
26951;SDS011;14507;52.418;13.398;2023-04-16T05:41:31;47.05;;;26.83;;
26951;SDS011;14507;52.418;13.398;2023-04-16T05:43:57;43.35;;;26.50;;
26951;SDS011;14507;52.418;13.398;2023-04-16T05:46:23;47.15;;;25.85;;
26951;SDS011;14507;52.418;13.398;2023-04-16T05:48:48;39.60;;;24.52;;
26951;SDS011;14507;52.418;13.398;2023-04-16T05:51:14;46.47;;;26.48;;
26951;SDS011;14507;52.418;13.398;2023-04-16T05:53:39;44.25;;;24.25;;
26951;SDS011;14507;52.418;13.398;2023-04-16T05:56:05;52.28;;;26.92;;
26951;SDS011;14507;52.418;13.398;2023-04-16T05:58:31;47.88;;;25.52;;
26951;SDS011;14507;52.418;13.398;2023-04-16T06:00:57;45.92;;;24.88;;
26951;SDS011;14507;52.418;13.398;2023-04-16T06:03:23;44.67;;;25.25;;
26951;SDS011;14507;52.418;13.398;2023-04-16T06:05:49;46.05;;;25.50;;
26951;SDS011;14507;52.418;13.398;2023-04-16T06:08:14;41.33;;;24.00;;
26951;SDS011;14507;52.418;13.398;2023-04-16T06:10:40;40.15;;;23.75;;
26951;SDS011;14507;52.418;13.398;2023-04-16T06:13:06;44.25;;;22.90;;
26951;SDS011;14507;52.418;13.398;2023-04-16T06:15:31;41.17;;;21.90;;
26951;SDS011;14507;52.418;13.398;2023-04-16T06:17:57;41.38;;;23.67;;
26951;SDS011;14507;52.418;13.398;2023-04-16T06:20:23;40.92;;;23.95;;
26951;SDS011;14507;52.418;13.398;2023-04-16T06:22:48;39.00;;;23.05;;
26951;SDS011;14507;52.418;13.398;2023-04-16T06:25:14;37.97;;;22.35;;
26951;SDS011;14507;52.418;13.398;2023-04-16T06:27:40;40.75;;;23.42;;
26951;SDS011;14507;52.418;13.398;2023-04-16T06:30:10;41.05;;;22.77;;
26951;SDS011;14507;52.418;13.398;2023-04-16T06:32:39;40.55;;;21.17;;
26951;SDS011;14507;52.418;13.398;2023-04-16T06:35:06;35.08;;;20.70;;
26951;SDS011;14507;52.418;13.398;2023-04-16T06:37:32;36.70;;;21.05;;
26951;SDS011;14507;52.418;13.398;2023-04-16T06:39:58;38.83;;;22.15;;
26951;SDS011;14507;52.418;13.398;2023-04-16T06:42:23;37.03;;;20.25;;
26951;SDS011;14507;52.418;13.398;2023-04-16T06:44:49;41.58;;;22.10;;
26951;SDS011;14507;52.418;13.398;2023-04-16T06:47:15;44.13;;;23.50;;
26951;SDS011;14507;52.418;13.398;2023-04-16T06:49:41;38.78;;;22.35;;
26951;SDS011;14507;52.418;13.398;2023-04-16T06:52:06;36.38;;;21.85;;
26951;SDS011;14507;52.418;13.398;2023-04-16T06:54:32;36.22;;;21.92;;
26951;SDS011;14507;52.418;13.398;2023-04-16T06:56:58;34.40;;;21.45;;
26951;SDS011;14507;52.418;13.398;2023-04-16T06:59:23;37.53;;;21.98;;
26951;SDS011;14507;52.418;13.398;2023-04-16T07:01:50;35.78;;;21.50;;
26951;SDS011;14507;52.418;13.398;2023-04-16T07:04:16;37.50;;;22.17;;
26951;SDS011;14507;52.418;13.398;2023-04-16T07:06:42;38.22;;;21.95;;
26951;SDS011;14507;52.418;13.398;2023-04-16T07:09:07;36.50;;;22.13;;
26951;SDS011;14507;52.418;13.398;2023-04-16T07:11:33;43.05;;;22.05;;
26951;SDS011;14507;52.418;13.398;2023-04-16T07:13:59;37.15;;;22.25;;
26951;SDS011;14507;52.418;13.398;2023-04-16T07:16:25;37.13;;;22.30;;
26951;SDS011;14507;52.418;13.398;2023-04-16T07:18:50;37.00;;;22.05;;
26951;SDS011;14507;52.418;13.398;2023-04-16T07:21:16;38.92;;;22.65;;
26951;SDS011;14507;52.418;13.398;2023-04-16T07:23:42;37.75;;;22.00;;
26951;SDS011;14507;52.418;13.398;2023-04-16T07:26:07;41.53;;;22.45;;
26951;SDS011;14507;52.418;13.398;2023-04-16T07:28:33;39.90;;;22.35;;
26951;SDS011;14507;52.418;13.398;2023-04-16T07:30:59;36.97;;;21.75;;
26951;SDS011;14507;52.418;13.398;2023-04-16T07:33:25;38.30;;;22.13;;
26951;SDS011;14507;52.418;13.398;2023-04-16T07:35:51;34.28;;;21.40;;
26951;SDS011;14507;52.418;13.398;2023-04-16T07:38:16;34.90;;;21.83;;
26951;SDS011;14507;52.418;13.398;2023-04-16T07:40:42;37.05;;;21.67;;
26951;SDS011;14507;52.418;13.398;2023-04-16T07:43:08;38.70;;;22.52;;
26951;SDS011;14507;52.418;13.398;2023-04-16T07:45:34;34.88;;;20.70;;
26951;SDS011;14507;52.418;13.398;2023-04-16T07:47:59;38.40;;;21.90;;
26951;SDS011;14507;52.418;13.398;2023-04-16T07:50:25;34.65;;;19.77;;
26951;SDS011;14507;52.418;13.398;2023-04-16T07:52:51;35.38;;;20.65;;
26951;SDS011;14507;52.418;13.398;2023-04-16T07:55:17;32.22;;;18.85;;
26951;SDS011;14507;52.418;13.398;2023-04-16T07:57:42;32.53;;;18.85;;
26951;SDS011;14507;52.418;13.398;2023-04-16T08:00:09;37.97;;;20.17;;
26951;SDS011;14507;52.418;13.398;2023-04-16T08:02:35;34.67;;;19.55;;
26951;SDS011;14507;52.418;13.398;2023-04-16T08:05:01;34.13;;;19.00;;
26951;SDS011;14507;52.418;13.398;2023-04-16T08:07:26;32.90;;;18.65;;
26951;SDS011;14507;52.418;13.398;2023-04-16T08:09:52;32.88;;;18.50;;
26951;SDS011;14507;52.418;13.398;2023-04-16T08:12:18;30.30;;;17.55;;
26951;SDS011;14507;52.418;13.398;2023-04-16T08:14:45;31.88;;;19.27;;
26951;SDS011;14507;52.418;13.398;2023-04-16T08:17:11;28.13;;;17.60;;
26951;SDS011;14507;52.418;13.398;2023-04-16T08:19:37;28.58;;;17.60;;
26951;SDS011;14507;52.418;13.398;2023-04-16T08:22:03;30.42;;;17.92;;
26951;SDS011;14507;52.418;13.398;2023-04-16T08:24:29;29.42;;;18.15;;
26951;SDS011;14507;52.418;13.398;2023-04-16T08:26:54;28.17;;;17.38;;
26951;SDS011;14507;52.418;13.398;2023-04-16T08:29:20;31.73;;;18.65;;
26951;SDS011;14507;52.418;13.398;2023-04-16T08:31:48;33.95;;;19.25;;
26951;SDS011;14507;52.418;13.398;2023-04-16T08:34:14;29.70;;;18.85;;
26951;SDS011;14507;52.418;13.398;2023-04-16T08:36:40;33.90;;;19.52;;
26951;SDS011;14507;52.418;13.398;2023-04-16T08:39:06;27.65;;;18.05;;
26951;SDS011;14507;52.418;13.398;2023-04-16T08:41:32;29.67;;;18.27;;
26951;SDS011;14507;52.418;13.398;2023-04-16T08:44:02;32.55;;;18.80;;
26951;SDS011;14507;52.418;13.398;2023-04-16T08:46:37;32.50;;;19.27;;
26951;SDS011;14507;52.418;13.398;2023-04-16T08:49:05;36.47;;;19.52;;
26951;SDS011;14507;52.418;13.398;2023-04-16T08:51:34;30.98;;;17.35;;
26951;SDS011;14507;52.418;13.398;2023-04-16T08:56:49;32.17;;;18.13;;
26951;SDS011;14507;52.418;13.398;2023-04-16T08:59:15;32.72;;;17.80;;
26951;SDS011;14507;52.418;13.398;2023-04-16T09:01:41;29.65;;;16.80;;
26951;SDS011;14507;52.418;13.398;2023-04-16T09:04:07;28.65;;;16.23;;
26951;SDS011;14507;52.418;13.398;2023-04-16T09:06:33;29.25;;;16.13;;
26951;SDS011;14507;52.418;13.398;2023-04-16T09:09:00;31.30;;;16.73;;
26951;SDS011;14507;52.418;13.398;2023-04-16T09:13:54;31.27;;;16.98;;
26951;SDS011;14507;52.418;13.398;2023-04-16T09:16:21;33.08;;;17.60;;
26951;SDS011;14507;52.418;13.398;2023-04-16T09:18:48;31.65;;;18.20;;
26951;SDS011;14507;52.418;13.398;2023-04-16T09:21:15;27.02;;;16.73;;
26951;SDS011;14507;52.418;13.398;2023-04-16T09:23:41;29.40;;;16.83;;
26951;SDS011;14507;52.418;13.398;2023-04-16T09:26:07;30.15;;;17.90;;
26951;SDS011;14507;52.418;13.398;2023-04-16T09:31:13;29.63;;;17.83;;
26951;SDS011;14507;52.418;13.398;2023-04-16T09:33:40;30.80;;;17.77;;
26951;SDS011;14507;52.418;13.398;2023-04-16T09:36:07;30.38;;;18.25;;
26951;SDS011;14507;52.418;13.398;2023-04-16T09:41:15;31.80;;;18.73;;
26951;SDS011;14507;52.418;13.398;2023-04-16T09:43:48;34.30;;;18.40;;
26951;SDS011;14507;52.418;13.398;2023-04-16T09:46:14;33.53;;;19.30;;
26951;SDS011;14507;52.418;13.398;2023-04-16T09:48:39;32.83;;;19.58;;
26951;SDS011;14507;52.418;13.398;2023-04-16T09:51:05;31.98;;;19.33;;
26951;SDS011;14507;52.418;13.398;2023-04-16T09:53:31;31.23;;;19.50;;
26951;SDS011;14507;52.418;13.398;2023-04-16T09:55:57;29.45;;;18.30;;
26951;SDS011;14507;52.418;13.398;2023-04-16T09:58:24;35.05;;;16.95;;
26951;SDS011;14507;52.418;13.398;2023-04-16T10:01:00;28.67;;;17.77;;
26951;SDS011;14507;52.418;13.398;2023-04-16T10:03:29;28.50;;;17.38;;
26951;SDS011;14507;52.418;13.398;2023-04-16T10:08:30;27.13;;;16.60;;
26951;SDS011;14507;52.418;13.398;2023-04-16T10:10:56;27.67;;;17.38;;
26951;SDS011;14507;52.418;13.398;2023-04-16T10:13:22;27.45;;;17.38;;
26951;SDS011;14507;52.418;13.398;2023-04-16T10:15:51;27.20;;;16.98;;
26951;SDS011;14507;52.418;13.398;2023-04-16T10:18:21;29.42;;;18.17;;
26951;SDS011;14507;52.418;13.398;2023-04-16T10:20:47;29.13;;;18.27;;
26951;SDS011;14507;52.418;13.398;2023-04-16T10:23:16;28.77;;;17.60;;
26951;SDS011;14507;52.418;13.398;2023-04-16T10:25:44;29.23;;;18.47;;
26951;SDS011;14507;52.418;13.398;2023-04-16T10:28:10;28.27;;;17.70;;
26951;SDS011;14507;52.418;13.398;2023-04-16T10:30:37;29.67;;;19.40;;
26951;SDS011;14507;52.418;13.398;2023-04-16T10:33:04;28.40;;;18.58;;
26951;SDS011;14507;52.418;13.398;2023-04-16T10:35:30;30.42;;;18.38;;
26951;SDS011;14507;52.418;13.398;2023-04-16T10:37:56;29.15;;;17.83;;
26951;SDS011;14507;52.418;13.398;2023-04-16T10:40:25;26.02;;;17.20;;
26951;SDS011;14507;52.418;13.398;2023-04-16T10:42:58;26.90;;;17.10;;
26951;SDS011;14507;52.418;13.398;2023-04-16T10:45:29;26.35;;;17.60;;
26951;SDS011;14507;52.418;13.398;2023-04-16T10:47:56;29.92;;;18.45;;
26951;SDS011;14507;52.418;13.398;2023-04-16T10:50:22;31.08;;;19.35;;
26951;SDS011;14507;52.418;13.398;2023-04-16T10:52:48;32.08;;;18.95;;
26951;SDS011;14507;52.418;13.398;2023-04-16T10:55:36;29.67;;;18.40;;
26951;SDS011;14507;52.418;13.398;2023-04-16T10:58:22;34.13;;;21.50;;
26951;SDS011;14507;52.418;13.398;2023-04-16T11:00:52;37.88;;;19.05;;
26951;SDS011;14507;52.418;13.398;2023-04-16T11:03:18;29.98;;;18.77;;
26951;SDS011;14507;52.418;13.398;2023-04-16T11:05:44;29.20;;;18.70;;
26951;SDS011;14507;52.418;13.398;2023-04-16T11:08:13;26.48;;;18.17;;
26951;SDS011;14507;52.418;13.398;2023-04-16T11:10:40;31.08;;;19.48;;
26951;SDS011;14507;52.418;13.398;2023-04-16T11:13:06;31.92;;;20.08;;
26951;SDS011;14507;52.418;13.398;2023-04-16T11:15:32;32.10;;;20.15;;
26951;SDS011;14507;52.418;13.398;2023-04-16T11:17:59;32.05;;;19.73;;
26951;SDS011;14507;52.418;13.398;2023-04-16T11:20:26;33.22;;;20.55;;
26951;SDS011;14507;52.418;13.398;2023-04-16T11:22:53;37.47;;;22.88;;
26951;SDS011;14507;52.418;13.398;2023-04-16T11:27:50;33.50;;;22.17;;
26951;SDS011;14507;52.418;13.398;2023-04-16T11:30:17;32.47;;;21.42;;
26951;SDS011;14507;52.418;13.398;2023-04-16T11:32:43;34.17;;;21.77;;
26951;SDS011;14507;52.418;13.398;2023-04-16T11:35:16;35.25;;;21.33;;
26951;SDS011;14507;52.418;13.398;2023-04-16T11:37:43;37.42;;;22.50;;
26951;SDS011;14507;52.418;13.398;2023-04-16T11:40:09;34.85;;;21.67;;
26951;SDS011;14507;52.418;13.398;2023-04-16T11:42:36;34.05;;;21.92;;
26951;SDS011;14507;52.418;13.398;2023-04-16T11:47:30;31.08;;;20.13;;
26951;SDS011;14507;52.418;13.398;2023-04-16T11:49:56;30.73;;;20.95;;
26951;SDS011;14507;52.418;13.398;2023-04-16T11:54:51;30.98;;;20.52;;
26951;SDS011;14507;52.418;13.398;2023-04-16T11:57:27;29.33;;;18.80;;
26951;SDS011;14507;52.418;13.398;2023-04-16T11:59:54;30.17;;;19.50;;
26951;SDS011;14507;52.418;13.398;2023-04-16T12:08:02;24.45;;;17.45;;
26951;SDS011;14507;52.418;13.398;2023-04-16T12:10:35;25.13;;;17.35;;
26951;SDS011;14507;52.418;13.398;2023-04-16T12:13:16;24.92;;;17.20;;
26951;SDS011;14507;52.418;13.398;2023-04-16T12:15:45;25.42;;;17.58;;
26951;SDS011;14507;52.418;13.398;2023-04-16T12:18:12;30.70;;;19.90;;
26951;SDS011;14507;52.418;13.398;2023-04-16T12:20:39;27.83;;;18.02;;
26951;SDS011;14507;52.418;13.398;2023-04-16T12:23:06;23.80;;;16.67;;
26951;SDS011;14507;52.418;13.398;2023-04-16T12:25:32;23.55;;;16.85;;
26951;SDS011;14507;52.418;13.398;2023-04-16T12:27:58;19.63;;;14.65;;
26951;SDS011;14507;52.418;13.398;2023-04-16T12:30:24;21.33;;;16.30;;
26951;SDS011;14507;52.418;13.398;2023-04-16T12:32:52;22.70;;;16.20;;
26951;SDS011;14507;52.418;13.398;2023-04-16T12:35:38;24.27;;;17.65;;
26951;SDS011;14507;52.418;13.398;2023-04-16T12:38:05;22.98;;;17.02;;
26951;SDS011;14507;52.418;13.398;2023-04-16T12:40:32;23.77;;;16.27;;
26951;SDS011;14507;52.418;13.398;2023-04-16T12:42:58;23.48;;;16.02;;
26951;SDS011;14507;52.418;13.398;2023-04-16T12:45:23;22.65;;;16.50;;
26951;SDS011;14507;52.418;13.398;2023-04-16T12:47:49;20.75;;;14.95;;
26951;SDS011;14507;52.418;13.398;2023-04-16T12:50:15;18.92;;;13.68;;
26951;SDS011;14507;52.418;13.398;2023-04-16T12:52:41;21.13;;;14.50;;
26951;SDS011;14507;52.418;13.398;2023-04-16T12:55:07;21.38;;;14.02;;
26951;SDS011;14507;52.418;13.398;2023-04-16T12:57:33;23.02;;;14.82;;
26951;SDS011;14507;52.418;13.398;2023-04-16T12:59:59;18.60;;;13.05;;
26951;SDS011;14507;52.418;13.398;2023-04-16T13:02:25;19.27;;;13.43;;
26951;SDS011;14507;52.418;13.398;2023-04-16T13:04:52;19.63;;;13.75;;
26951;SDS011;14507;52.418;13.398;2023-04-16T13:07:18;18.58;;;13.68;;
26951;SDS011;14507;52.418;13.398;2023-04-16T13:09:44;21.45;;;15.02;;
26951;SDS011;14507;52.418;13.398;2023-04-16T13:12:10;24.25;;;15.93;;
26951;SDS011;14507;52.418;13.398;2023-04-16T13:14:36;23.25;;;15.70;;
26951;SDS011;14507;52.418;13.398;2023-04-16T13:17:02;23.45;;;15.50;;
26951;SDS011;14507;52.418;13.398;2023-04-16T13:19:28;21.95;;;14.68;;
26951;SDS011;14507;52.418;13.398;2023-04-16T13:21:54;22.35;;;13.70;;
26951;SDS011;14507;52.418;13.398;2023-04-16T13:24:20;21.13;;;13.60;;
26951;SDS011;14507;52.418;13.398;2023-04-16T13:26:47;17.98;;;12.02;;
26951;SDS011;14507;52.418;13.398;2023-04-16T13:29:13;23.98;;;14.23;;
26951;SDS011;14507;52.418;13.398;2023-04-16T13:31:39;20.48;;;13.73;;
26951;SDS011;14507;52.418;13.398;2023-04-16T13:34:05;21.08;;;13.35;;
26951;SDS011;14507;52.418;13.398;2023-04-16T13:36:31;19.48;;;13.30;;
26951;SDS011;14507;52.418;13.398;2023-04-16T13:38:57;21.35;;;13.32;;
26951;SDS011;14507;52.418;13.398;2023-04-16T13:41:23;18.75;;;12.60;;
26951;SDS011;14507;52.418;13.398;2023-04-16T13:43:50;21.85;;;13.98;;
26951;SDS011;14507;52.418;13.398;2023-04-16T13:46:16;18.48;;;12.82;;
26951;SDS011;14507;52.418;13.398;2023-04-16T13:48:42;20.27;;;13.75;;
26951;SDS011;14507;52.418;13.398;2023-04-16T13:51:09;20.00;;;12.98;;
26951;SDS011;14507;52.418;13.398;2023-04-16T13:53:34;18.77;;;12.30;;
26951;SDS011;14507;52.418;13.398;2023-04-16T13:56:00;21.67;;;12.90;;
26951;SDS011;14507;52.418;13.398;2023-04-16T13:58:27;24.83;;;15.15;;
26951;SDS011;14507;52.418;13.398;2023-04-16T14:00:53;20.48;;;13.05;;
26951;SDS011;14507;52.418;13.398;2023-04-16T14:03:19;20.55;;;13.65;;
26951;SDS011;14507;52.418;13.398;2023-04-16T14:05:44;21.80;;;13.93;;
26951;SDS011;14507;52.418;13.398;2023-04-16T14:08:10;25.92;;;12.90;;
26951;SDS011;14507;52.418;13.398;2023-04-16T14:13:04;19.67;;;12.40;;
26951;SDS011;14507;52.418;13.398;2023-04-16T14:15:30;20.75;;;12.90;;
26951;SDS011;14507;52.418;13.398;2023-04-16T14:17:55;16.20;;;11.95;;
26951;SDS011;14507;52.418;13.398;2023-04-16T14:20:21;18.77;;;12.23;;
26951;SDS011;14507;52.418;13.398;2023-04-16T14:22:47;21.13;;;13.27;;
26951;SDS011;14507;52.418;13.398;2023-04-16T14:25:12;18.52;;;12.23;;
26951;SDS011;14507;52.418;13.398;2023-04-16T14:27:38;20.83;;;12.73;;
26951;SDS011;14507;52.418;13.398;2023-04-16T14:30:05;18.65;;;11.90;;
26951;SDS011;14507;52.418;13.398;2023-04-16T14:32:31;19.30;;;11.68;;